Time;durP1;ratioP1;P1;durP2;ratioP2;P2;SDS_P1;SDS_P2;PMS_P1;PMS_P2;Temp;Humidity;BMP_temperature;BMP_pressure;BME280_temperature;BME280_humidity;BME280_pressure;Samples;Min_cycle;Max_cycle;Signal;HPM_P1;HPM_P2
2022/12/18 00:01:34;;;;;;;9.05;2.83;;;;;;;;;;10356253;28;20033;-54
2022/12/18 00:06:35;;;;;;;7.35;2.15;;;;;;;;;;10362777;28;20033;-49
2022/12/18 00:11:36;;;;;;;4.15;2.45;;;;;;;;;;10361065;28;20061;-50
2022/12/18 00:16:37;;;;;;;6.82;2.55;;;;;;;;;;10355550;28;20026;-59
2022/12/18 00:21:37;;;;;;;9.45;2.55;;;;;;;;;;10357043;28;20027;-51
2022/12/18 00:26:39;;;;;;;3.75;2.40;;;;;;;;;;10355109;28;20046;-48
2022/12/18 00:31:41;;;;;;;19.58;2.85;;;;;;;;;;10358499;28;20034;-51
2022/12/18 00:36:42;;;;;;;7.97;2.92;;;;;;;;;;10347609;28;20030;-49
2022/12/18 00:47:03;;;;;;;8.02;2.30;;;;;;;;;;10314286;28;20046;-49
2022/12/18 00:52:04;;;;;;;4.20;2.42;;;;;;;;;;10352738;28;20049;-49
2022/12/18 00:57:04;;;;;;;9.00;2.30;;;;;;;;;;10354271;28;20030;-51
2022/12/18 01:02:05;;;;;;;4.40;2.40;;;;;;;;;;10359845;28;20030;-50
2022/12/18 01:07:05;;;;;;;7.45;2.30;;;;;;;;;;10344809;28;20076;-49
2022/12/18 01:12:06;;;;;;;5.57;2.40;;;;;;;;;;10356892;28;20061;-48
2022/12/18 01:17:07;;;;;;;3.35;2.40;;;;;;;;;;10344702;28;20034;-49
2022/12/18 01:22:07;;;;;;;4.47;2.53;;;;;;;;;;10340659;28;20034;-48
2022/12/18 01:27:08;;;;;;;5.03;2.38;;;;;;;;;;10332718;28;20056;-49
2022/12/18 01:32:09;;;;;;;4.35;2.30;;;;;;;;;;10341441;28;20586;-53
2022/12/18 01:37:10;;;;;;;5.22;2.50;;;;;;;;;;10334518;28;20391;-51
2022/12/18 01:42:15;;;;;;;5.65;2.20;;;;;;;;;;10351978;28;20061;-51
2022/12/18 01:47:29;;;;;;;2.42;2.05;;;;;;;;;;10371091;28;20403;-60
2022/12/18 01:52:32;;;;;;;4.18;2.20;;;;;;;;;;10349421;28;20041;-55
2022/12/18 01:57:34;;;;;;;5.63;2.30;;;;;;;;;;10352156;28;20030;-48
2022/12/18 02:02:35;;;;;;;3.63;2.08;;;;;;;;;;10358188;28;20025;-48
2022/12/18 02:08:09;;;;;;;4.13;2.40;;;;;;;;;;10354639;28;20048;-51
2022/12/18 02:13:53;;;;;;;4.63;2.58;;;;;;;;;;10352528;28;20034;-49
2022/12/18 02:18:59;;;;;;;7.25;2.25;;;;;;;;;;10368871;28;20100;-49
2022/12/18 02:24:41;;;;;;;3.67;2.10;;;;;;;;;;10369211;28;20028;-52
2022/12/18 02:29:52;;;;;;;3.75;1.95;;;;;;;;;;10357170;28;20485;-47
2022/12/18 02:34:55;;;;;;;6.22;1.95;;;;;;;;;;10357026;28;20125;-51
2022/12/18 02:39:58;;;;;;;2.53;2.17;;;;;;;;;;10347771;28;20029;-49
2022/12/18 02:44:58;;;;;;;4.65;2.55;;;;;;;;;;10364217;28;20104;-50
2022/12/18 02:50:18;;;;;;;2.25;1.70;;;;;;;;;;10354484;28;20559;-50
2022/12/18 02:55:27;;;;;;;3.00;2.00;;;;;;;;;;10349126;28;20331;-53
2022/12/18 03:00:42;;;;;;;3.03;2.00;;;;;;;;;;10349931;28;20052;-49
2022/12/18 03:05:51;;;;;;;3.80;2.38;;;;;;;;;;10358058;28;20029;-56
2022/12/18 03:11:00;;;;;;;4.22;2.20;;;;;;;;;;10341484;28;20128;-50
2022/12/18 03:16:05;;;;;;;5.63;2.10;;;;;;;;;;10383980;28;20042;-49
2022/12/18 03:21:07;;;;;;;5.50;2.03;;;;;;;;;;10367609;28;20029;-50
2022/12/18 03:26:13;;;;;;;2.10;1.90;;;;;;;;;;10381628;28;20070;-51
2022/12/18 03:31:14;;;;;;;2.60;1.90;;;;;;;;;;10366128;28;20193;-56
2022/12/18 03:36:15;;;;;;;1.92;1.77;;;;;;;;;;10342256;28;20390;-53
2022/12/18 03:41:25;;;;;;;3.22;2.20;;;;;;;;;;10348706;28;20026;-48
2022/12/18 03:46:40;;;;;;;3.65;2.20;;;;;;;;;;10366923;28;20374;-50
2022/12/18 03:51:54;;;;;;;2.30;2.08;;;;;;;;;;10358957;28;20500;-46
2022/12/18 03:57:05;;;;;;;3.80;1.90;;;;;;;;;;10346674;28;20038;-52
2022/12/18 04:02:07;;;;;;;3.25;2.00;;;;;;;;;;10354764;28;20072;-48
2022/12/18 04:07:09;;;;;;;2.67;2.08;;;;;;;;;;10364932;28;20029;-50
2022/12/18 04:12:09;;;;;;;3.40;1.70;;;;;;;;;;10361357;28;20465;-50
2022/12/18 04:17:10;;;;;;;2.08;1.90;;;;;;;;;;10366032;28;20077;-49
2022/12/18 04:22:11;;;;;;;2.13;1.65;;;;;;;;;;10365153;28;20431;-49
2022/12/18 04:27:11;;;;;;;2.72;1.92;;;;;;;;;;10351916;28;20042;-50
2022/12/18 04:32:12;;;;;;;2.92;1.73;;;;;;;;;;10362949;28;20029;-49
2022/12/18 04:37:12;;;;;;;3.80;1.98;;;;;;;;;;10349907;28;20099;-47
2022/12/18 04:42:13;;;;;;;2.42;1.83;;;;;;;;;;10351627;28;20061;-51
2022/12/18 04:47:13;;;;;;;2.58;1.95;;;;;;;;;;10352869;28;20062;-50
2022/12/18 04:52:14;;;;;;;1.85;1.63;;;;;;;;;;10351626;28;20034;-48
2022/12/18 04:57:15;;;;;;;1.88;1.55;;;;;;;;;;10365802;28;20030;-51
2022/12/18 05:02:15;;;;;;;1.67;1.58;;;;;;;;;;10344691;28;20081;-51
2022/12/18 05:07:16;;;;;;;1.83;1.73;;;;;;;;;;10347391;28;20406;-48
2022/12/18 05:12:16;;;;;;;2.25;1.77;;;;;;;;;;10345554;28;20034;-50
2022/12/18 05:17:17;;;;;;;5.82;2.05;;;;;;;;;;10341448;28;20034;-49
2022/12/18 05:22:18;;;;;;;2.08;1.65;;;;;;;;;;10353110;28;20384;-51
2022/12/18 05:27:20;;;;;;;2.33;2.10;;;;;;;;;;10372711;28;20115;-49
2022/12/18 05:32:21;;;;;;;2.53;1.90;;;;;;;;;;10367674;28;20030;-51
2022/12/18 05:37:21;;;;;;;2.47;1.90;;;;;;;;;;10360956;28;20432;-50
2022/12/18 05:42:22;;;;;;;2.53;2.00;;;;;;;;;;10368500;28;20018;-50
2022/12/18 05:47:22;;;;;;;2.50;2.00;;;;;;;;;;10366410;28;20025;-51
2022/12/18 05:52:24;;;;;;;4.25;2.28;;;;;;;;;;10348189;28;20045;-51
2022/12/18 05:57:24;;;;;;;4.25;1.90;;;;;;;;;;10340325;28;20398;-48
2022/12/18 06:02:25;;;;;;;9.70;1.83;;;;;;;;;;10359649;28;20029;-49
2022/12/18 06:07:26;;;;;;;2.53;1.60;;;;;;;;;;10352337;28;20033;-49
2022/12/18 06:12:26;;;;;;;3.30;1.83;;;;;;;;;;10368967;28;20037;-51
2022/12/18 06:17:31;;;;;;;2.47;1.95;;;;;;;;;;10369784;28;20034;-49
2022/12/18 06:22:32;;;;;;;7.55;1.90;;;;;;;;;;10367848;28;20068;-54
2022/12/18 06:27:33;;;;;;;2.92;1.80;;;;;;;;;;10361511;28;20054;-50
2022/12/18 06:32:34;;;;;;;5.55;2.13;;;;;;;;;;10366644;28;20438;-56
2022/12/18 06:37:34;;;;;;;3.67;1.98;;;;;;;;;;10345477;28;20045;-57
2022/12/18 06:42:35;;;;;;;3.15;2.00;;;;;;;;;;10343888;28;20029;-58
2022/12/18 06:47:35;;;;;;;5.10;1.90;;;;;;;;;;10368538;28;20034;-58
2022/12/18 06:52:36;;;;;;;3.80;2.00;;;;;;;;;;10359731;28;20084;-57
2022/12/18 06:57:37;;;;;;;2.85;1.92;;;;;;;;;;10355231;28;20387;-57
2022/12/18 07:02:38;;;;;;;4.70;1.88;;;;;;;;;;10365654;28;20022;-58
2022/12/18 07:07:39;;;;;;;2.75;2.30;;;;;;;;;;10362748;28;20030;-58
2022/12/18 07:12:39;;;;;;;7.35;2.28;;;;;;;;;;10356626;28;20437;-57
2022/12/18 07:17:40;;;;;;;3.42;2.30;;;;;;;;;;10355437;28;20497;-58
2022/12/18 07:22:40;;;;;;;2.42;2.13;;;;;;;;;;10358682;28;20022;-53
2022/12/18 07:27:41;;;;;;;3.30;2.20;;;;;;;;;;10360988;28;20050;-57
2022/12/18 07:32:41;;;;;;;6.82;2.10;;;;;;;;;;10362470;28;20158;-57
2022/12/18 07:37:42;;;;;;;10.48;2.28;;;;;;;;;;10347781;28;20033;-50
2022/12/18 07:42:43;;;;;;;3.88;2.58;;;;;;;;;;10345766;28;20030;-50
2022/12/18 07:47:43;;;;;;;4.97;3.05;;;;;;;;;;10351833;28;20077;-49
2022/12/18 07:52:44;;;;;;;11.20;2.83;;;;;;;;;;10349408;28;20471;-49
2022/12/18 07:57:45;;;;;;;13.23;3.08;;;;;;;;;;10364539;28;20049;-50
2022/12/18 08:02:45;;;;;;;13.68;3.60;;;;;;;;;;10353447;28;20026;-49
2022/12/18 08:07:46;;;;;;;13.73;3.28;;;;;;;;;;10370427;28;20277;-52
2022/12/18 08:12:51;;;;;;;9.73;3.10;;;;;;;;;;10341490;28;20044;-51
2022/12/18 08:17:52;;;;;;;12.73;3.08;;;;;;;;;;10352718;28;20567;-48
2022/12/18 08:22:53;;;;;;;7.75;3.58;;;;;;;;;;10354726;28;20091;-49
2022/12/18 08:27:56;;;;;;;6.13;3.47;;;;;;;;;;10365455;28;20520;-48
2022/12/18 08:32:56;;;;;;;11.85;3.13;;;;;;;;;;10364729;28;20099;-49
2022/12/18 08:37:57;;;;;;;13.55;3.38;;;;;;;;;;10363677;28;20032;-51
2022/12/18 08:48:16;;;;;;;;;;;;;;;;;;10363406;28;20481;-48
2022/12/18 08:53:17;;;;;;;7.73;2.70;;;;;;;;;;10364231;28;19913;-49
2022/12/18 08:58:18;;;;;;;4.57;2.75;;;;;;;;;;10365021;28;20479;-47
2022/12/18 09:03:22;;;;;;;8.27;3.13;;;;;;;;;;10340699;28;20026;-48
2022/12/18 09:08:22;;;;;;;10.05;3.80;;;;;;;;;;10352587;28;20105;-48
2022/12/18 09:13:23;;;;;;;8.55;2.40;;;;;;;;;;10355697;28;20022;-50
2022/12/18 09:18:24;;;;;;;9.38;3.15;;;;;;;;;;10364986;28;20034;-51
2022/12/18 09:23:25;;;;;;;4.60;2.67;;;;;;;;;;10363028;28;20508;-49
2022/12/18 09:28:26;;;;;;;9.55;3.08;;;;;;;;;;10364140;28;20050;-49
2022/12/18 09:33:26;;;;;;;11.95;3.15;;;;;;;;;;10339879;28;20033;-49
2022/12/18 09:38:27;;;;;;;4.85;2.72;;;;;;;;;;10364912;28;20037;-48
2022/12/18 09:43:42;;;;;;;9.13;3.30;;;;;;;;;;10352150;28;20355;-48
2022/12/18 09:48:49;;;;;;;5.20;2.88;;;;;;;;;;10351650;28;20025;-49
2022/12/18 09:54:07;;;;;;;4.75;2.20;;;;;;;;;;10341581;28;20034;-51
2022/12/18 09:59:29;;;;;;;4.85;2.83;;;;;;;;;;10376470;28;20034;-49
2022/12/18 10:04:31;;;;;;;3.17;2.30;;;;;;;;;;10356377;28;20362;-49
2022/12/18 10:10:06;;;;;;;3.53;2.53;;;;;;;;;;10361945;28;20030;-48
2022/12/18 10:15:40;;;;;;;2.60;2.25;;;;;;;;;;10368871;28;20026;-48
2022/12/18 10:20:43;;;;;;;3.72;2.75;;;;;;;;;;10358208;28;20044;-50
2022/12/18 10:26:12;;;;;;;3.92;2.90;;;;;;;;;;10362165;28;20137;-48
2022/12/18 10:31:18;;;;;;;2.97;2.60;;;;;;;;;;10365800;28;20038;-47
2022/12/18 10:36:18;;;;;;;5.38;2.88;;;;;;;;;;10342131;28;20449;-55
2022/12/18 10:41:20;;;;;;;9.73;3.00;;;;;;;;;;10345004;28;20034;-54
2022/12/18 10:46:21;;;;;;;4.10;2.85;;;;;;;;;;10334195;28;20038;-53
2022/12/18 10:51:37;;;;;;;4.38;2.97;;;;;;;;;;10362454;28;20034;-52
2022/12/18 10:56:38;;;;;;;8.38;3.47;;;;;;;;;;10343643;28;20505;-58
2022/12/18 11:01:50;;;;;;;22.52;4.00;;;;;;;;;;10355330;28;20121;-58
2022/12/18 11:06:56;;;;;;;13.18;4.10;;;;;;;;;;10360176;28;20044;-58
2022/12/18 11:12:01;;;;;;;8.30;4.20;;;;;;;;;;10340684;28;20030;-58
2022/12/18 11:17:02;;;;;;;9.73;3.65;;;;;;;;;;10348686;28;20188;-58
2022/12/18 11:22:34;;;;;;;7.68;3.70;;;;;;;;;;10345880;28;20030;-58
2022/12/18 11:27:35;;;;;;;7.65;3.50;;;;;;;;;;10345513;28;20457;-59
2022/12/18 11:32:40;;;;;;;7.97;3.42;;;;;;;;;;10357187;28;20033;-59
2022/12/18 11:37:58;;;;;;;4.30;3.30;;;;;;;;;;10353906;28;20038;-59
2022/12/18 11:43:35;;;;;;;7.88;3.38;;;;;;;;;;10341328;28;20030;-59
2022/12/18 11:48:48;;;;;;;4.80;2.85;;;;;;;;;;10355795;28;20034;-59
2022/12/18 11:53:48;;;;;;;4.20;2.88;;;;;;;;;;10349885;28;20029;-59
2022/12/18 11:59:14;;;;;;;4.32;3.08;;;;;;;;;;10357131;28;20489;-59
2022/12/18 12:04:38;;;;;;;6.30;3.05;;;;;;;;;;10342384;28;20030;-59
2022/12/18 12:10:16;;;;;;;4.30;3.20;;;;;;;;;;10348052;28;20029;-58
2022/12/18 12:15:38;;;;;;;4.97;3.30;;;;;;;;;;10343903;28;20127;-59
2022/12/18 12:20:57;;;;;;;18.42;4.10;;;;;;;;;;10336246;28;20533;-58
2022/12/18 12:26:10;;;;;;;15.10;3.85;;;;;;;;;;10334140;28;20393;-58
2022/12/18 12:32:00;;;;;;;11.50;3.50;;;;;;;;;;10344220;28;20026;-59
2022/12/18 12:37:13;;;;;;;9.43;3.55;;;;;;;;;;10336787;28;20236;-58
2022/12/18 12:47:59;;;;;;;5.63;3.40;;;;;;;;;;10353030;28;20030;-58
2022/12/18 12:53:06;;;;;;;17.85;3.55;;;;;;;;;;10331793;28;20026;-58
2022/12/18 12:58:31;;;;;;;15.55;3.75;;;;;;;;;;10352310;28;20040;-63
2022/12/18 13:04:15;;;;;;;7.30;3.13;;;;;;;;;;10351647;28;20053;-58
2022/12/18 13:09:16;;;;;;;7.05;3.38;;;;;;;;;;10353086;28;20026;-58
2022/12/18 13:14:37;;;;;;;6.22;3.22;;;;;;;;;;10354467;28;20022;-58
2022/12/18 13:19:38;;;;;;;4.57;2.83;;;;;;;;;;10346833;28;20019;-58
2022/12/18 13:24:38;;;;;;;6.43;3.17;;;;;;;;;;10352320;28;20543;-58
2022/12/18 13:29:45;;;;;;;8.70;4.65;;;;;;;;;;10342009;28;20034;-58
2022/12/18 13:34:45;;;;;;;8.13;3.33;;;;;;;;;;10337024;28;20029;-59
2022/12/18 13:39:46;;;;;;;9.25;3.38;;;;;;;;;;10354699;28;20034;-58
2022/12/18 13:44:47;;;;;;;10.88;3.60;;;;;;;;;;10363217;28;20081;-58
2022/12/18 13:49:47;;;;;;;6.18;3.63;;;;;;;;;;10348809;28;20038;-58
2022/12/18 13:54:57;;;;;;;4.70;3.20;;;;;;;;;;10347474;28;20033;-58
2022/12/18 14:00:17;;;;;;;6.25;3.30;;;;;;;;;;10367662;28;20030;-58
2022/12/18 14:05:37;;;;;;;10.95;3.40;;;;;;;;;;10368444;28;20034;-58
2022/12/18 14:10:47;;;;;;;4.78;3.13;;;;;;;;;;10366167;28;20404;-58
2022/12/18 14:15:49;;;;;;;4.68;3.08;;;;;;;;;;10383219;28;20033;-59
2022/12/18 14:20:54;;;;;;;8.65;3.60;;;;;;;;;;10346826;28;20031;-58
2022/12/18 14:25:54;;;;;;;4.88;3.15;;;;;;;;;;10355963;28;20060;-59
2022/12/18 14:30:56;;;;;;;8.25;3.38;;;;;;;;;;10361847;28;20024;-65
2022/12/18 14:36:02;;;;;;;5.80;2.92;;;;;;;;;;10356707;28;20046;-65
2022/12/18 14:41:11;;;;;;;3.45;2.83;;;;;;;;;;10353260;28;20030;-65
2022/12/18 14:46:42;;;;;;;6.20;3.50;;;;;;;;;;10344748;28;20124;-63
2022/12/18 14:51:52;;;;;;;24.88;5.25;;;;;;;;;;10329832;28;20482;-63
2022/12/18 14:57:14;;;;;;;10.50;4.10;;;;;;;;;;10355268;28;20080;-62
2022/12/18 15:02:27;;;;;;;10.13;4.20;;;;;;;;;;10365420;28;20029;-64
2022/12/18 15:07:50;;;;;;;11.02;3.65;;;;;;;;;;10357442;28;20470;-63
2022/12/18 15:12:57;;;;;;;17.90;3.60;;;;;;;;;;10361700;28;20038;-66
2022/12/18 15:18:10;;;;;;;8.68;4.05;;;;;;;;;;10347003;28;20264;-61
2022/12/18 15:23:35;;;;;;;15.07;3.78;;;;;;;;;;10356639;28;20033;-65
2022/12/18 15:28:44;;;;;;;14.07;4.20;;;;;;;;;;10404475;23;20080;-69
2022/12/18 15:34:09;;;;;;;10.80;3.65;;;;;;;;;;10403378;28;20029;-70
2022/12/18 15:39:12;;;;;;;13.45;3.60;;;;;;;;;;10346911;28;20117;-70
2022/12/18 15:44:24;;;;;;;9.02;4.07;;;;;;;;;;10357802;28;20581;-71
2022/12/18 15:49:25;;;;;;;10.13;3.53;;;;;;;;;;10349451;28;20057;-70
2022/12/18 15:59:45;;;;;;;6.30;3.40;;;;;;;;;;10352326;28;20026;-69
2022/12/18 16:04:46;;;;;;;12.02;3.47;;;;;;;;;;10360854;28;20025;-68
2022/12/18 16:09:47;;;;;;;7.93;3.25;;;;;;;;;;10347044;28;20157;-68
2022/12/18 16:14:48;;;;;;;10.77;3.47;;;;;;;;;;10337078;28;20137;-68
2022/12/18 16:19:49;;;;;;;12.48;3.38;;;;;;;;;;10360030;28;20113;-67
2022/12/18 16:24:52;;;;;;;7.68;3.20;;;;;;;;;;10345637;28;20100;-67
2022/12/18 16:29:53;;;;;;;13.15;3.42;;;;;;;;;;10348005;28;20069;-67
2022/12/18 16:34:59;;;;;;;6.20;3.10;;;;;;;;;;10361656;28;20034;-67
2022/12/18 16:40:00;;;;;;;6.40;2.95;;;;;;;;;;10335163;28;20073;-67
2022/12/18 16:45:01;;;;;;;8.98;3.65;;;;;;;;;;10361199;28;20034;-67
2022/12/18 16:50:04;;;;;;;9.38;3.45;;;;;;;;;;10357464;28;20469;-68
2022/12/18 16:55:05;;;;;;;5.60;2.90;;;;;;;;;;10340473;28;20073;-67
2022/12/18 17:00:06;;;;;;;5.43;3.03;;;;;;;;;;10333236;28;20034;-67
2022/12/18 17:05:07;;;;;;;11.65;3.80;;;;;;;;;;10358567;28;20509;-68
2022/12/18 17:10:08;;;;;;;5.47;2.88;;;;;;;;;;10362802;28;20105;-67
2022/12/18 17:15:09;;;;;;;4.35;2.90;;;;;;;;;;10369289;28;20087;-67
2022/12/18 17:20:10;;;;;;;11.35;2.92;;;;;;;;;;10368838;28;20401;-67
2022/12/18 17:25:11;;;;;;;4.57;2.58;;;;;;;;;;10367072;28;20049;-68
2022/12/18 17:30:12;;;;;;;5.05;2.65;;;;;;;;;;10377118;28;20551;-67
2022/12/18 17:35:12;;;;;;;5.22;3.10;;;;;;;;;;10370102;28;20149;-67
2022/12/18 17:40:17;;;;;;;5.68;2.97;;;;;;;;;;10353684;28;20038;-67
2022/12/18 17:45:17;;;;;;;14.05;3.63;;;;;;;;;;10353565;28;20030;-67
2022/12/18 17:50:18;;;;;;;6.63;3.47;;;;;;;;;;10371538;28;20021;-67
2022/12/18 17:55:18;;;;;;;7.15;3.42;;;;;;;;;;10359021;28;20051;-67
2022/12/18 18:00:20;;;;;;;4.03;2.92;;;;;;;;;;10373627;28;20045;-67
2022/12/18 18:05:20;;;;;;;4.35;2.97;;;;;;;;;;10359732;28;20036;-67
2022/12/18 18:10:21;;;;;;;6.07;3.22;;;;;;;;;;10367798;28;20052;-67
2022/12/18 18:15:22;;;;;;;6.28;3.53;;;;;;;;;;10365597;28;20033;-67
2022/12/18 18:20:22;;;;;;;6.00;3.67;;;;;;;;;;10370167;28;20030;-67
2022/12/18 18:25:23;;;;;;;9.98;3.33;;;;;;;;;;10367554;28;20042;-67
2022/12/18 18:30:23;;;;;;;5.43;2.83;;;;;;;;;;10370102;28;20053;-67
2022/12/18 18:35:24;;;;;;;6.80;2.97;;;;;;;;;;10365785;28;20033;-67
2022/12/18 18:40:25;;;;;;;3.97;3.10;;;;;;;;;;10369504;28;20018;-67
2022/12/18 18:45:25;;;;;;;4.85;3.38;;;;;;;;;;10368971;28;20037;-67
2022/12/18 18:50:26;;;;;;;6.35;3.78;;;;;;;;;;10362794;28;20030;-67
2022/12/18 18:55:26;;;;;;;4.90;3.50;;;;;;;;;;10357134;28;20040;-67
2022/12/18 19:00:27;;;;;;;7.13;4.28;;;;;;;;;;10354135;28;20026;-66
2022/12/18 19:05:30;;;;;;;8.15;4.03;;;;;;;;;;10365920;28;20026;-65
2022/12/18 19:10:31;;;;;;;7.88;4.47;;;;;;;;;;10357779;28;20155;-66
2022/12/18 19:15:33;;;;;;;5.53;3.95;;;;;;;;;;10354143;28;20123;-65
2022/12/18 19:20:33;;;;;;;9.32;4.13;;;;;;;;;;10361613;28;20030;-65
2022/12/18 19:25:38;;;;;;;8.85;4.05;;;;;;;;;;10349081;28;20050;-65
2022/12/18 19:30:47;;;;;;;11.32;3.55;;;;;;;;;;10363329;28;20127;-65
2022/12/18 19:35:48;;;;;;;;;;;;;;;;;;10367395;28;20100;-66
2022/12/18 19:40:49;;;;;;;9.02;4.30;;;;;;;;;;10363458;28;19971;-65
2022/12/18 19:45:54;;;;;;;6.13;4.10;;;;;;;;;;10364017;28;20026;-66
2022/12/18 19:50:55;;;;;;;6.75;4.15;;;;;;;;;;10367208;28;20084;-65
2022/12/18 19:55:55;;;;;;;6.15;4.35;;;;;;;;;;10361795;28;20096;-66
2022/12/18 20:00:56;;;;;;;5.10;4.05;;;;;;;;;;10364795;28;20076;-66
2022/12/18 20:06:33;;;;;;;8.60;4.38;;;;;;;;;;10362247;28;20037;-66
2022/12/18 20:11:34;;;;;;;8.02;4.32;;;;;;;;;;10358552;28;20042;-65
2022/12/18 20:16:35;;;;;;;8.50;3.95;;;;;;;;;;10362264;28;20466;-65
2022/12/18 20:21:35;;;;;;;6.65;4.47;;;;;;;;;;10354209;28;20077;-65
2022/12/18 20:26:36;;;;;;;4.78;3.90;;;;;;;;;;10353020;28;20049;-65
2022/12/18 20:31:37;;;;;;;5.18;4.05;;;;;;;;;;10362877;28;20378;-65
2022/12/18 20:36:37;;;;;;;11.40;4.57;;;;;;;;;;10349499;28;20031;-65
2022/12/18 20:41:38;;;;;;;7.97;3.97;;;;;;;;;;10358405;28;20038;-64
2022/12/18 20:46:38;;;;;;;5.40;3.85;;;;;;;;;;10348277;28;20076;-65
2022/12/18 20:51:39;;;;;;;5.63;4.30;;;;;;;;;;10348194;28;20033;-65
2022/12/18 20:56:40;;;;;;;6.07;4.68;;;;;;;;;;10360796;28;20274;-65
2022/12/18 21:01:41;;;;;;;5.03;4.10;;;;;;;;;;10353950;28;20041;-65
2022/12/18 21:06:41;;;;;;;7.75;5.43;;;;;;;;;;10355580;28;20382;-65
2022/12/18 21:17:01;;;;;;;5.95;4.75;;;;;;;;;;10356711;28;20042;-65
2022/12/18 21:22:02;;;;;;;8.27;5.13;;;;;;;;;;10360275;28;20477;-65
2022/12/18 21:27:03;;;;;;;12.38;5.25;;;;;;;;;;10352505;28;20046;-66
2022/12/18 21:32:04;;;;;;;7.55;4.93;;;;;;;;;;10360545;28;20049;-64
2022/12/18 21:37:05;;;;;;;8.00;4.90;;;;;;;;;;10360151;28;20029;-65
2022/12/18 21:47:24;;;;;;;9.15;5.70;;;;;;;;;;10359344;28;20026;-65
2022/12/18 21:52:25;;;;;;;7.95;5.10;;;;;;;;;;10349350;28;20018;-65
2022/12/18 21:57:26;;;;;;;10.18;5.38;;;;;;;;;;10355953;28;20081;-64
2022/12/18 22:02:26;;;;;;;9.23;5.30;;;;;;;;;;10362258;28;20034;-63
2022/12/18 22:07:28;;;;;;;9.52;5.15;;;;;;;;;;10369914;28;20131;-66
2022/12/18 22:12:35;;;;;;;10.57;5.05;;;;;;;;;;10364319;28;20045;-64
2022/12/18 22:17:36;;;;;;;7.05;4.97;;;;;;;;;;10362871;28;20033;-65
2022/12/18 22:22:44;;;;;;;9.10;5.55;;;;;;;;;;10368419;28;20026;-66
2022/12/18 22:30:02;;;;;;;7.25;5.43;;;;;;;;;;10354037;28;20046;-65
2022/12/18 22:33:06;;;;;;;11.65;5.30;;;;;;;;;;10357384;28;20574;-65
2022/12/18 22:38:06;;;;;;;8.10;5.30;;;;;;;;;;10357662;28;20060;-67
2022/12/18 22:43:07;;;;;;;12.13;4.47;;;;;;;;;;10366810;28;20029;-65
2022/12/18 22:48:07;;;;;;;7.10;4.70;;;;;;;;;;10361564;28;20038;-65
2022/12/18 22:53:09;;;;;;;7.18;4.53;;;;;;;;;;10366635;28;20030;-64
2022/12/18 22:58:10;;;;;;;7.95;4.88;;;;;;;;;;10367715;28;20064;-65
2022/12/18 23:03:10;;;;;;;8.77;4.50;;;;;;;;;;10364186;28;20096;-64
2022/12/18 23:08:11;;;;;;;10.48;5.25;;;;;;;;;;10368010;28;20018;-64
2022/12/18 23:13:12;;;;;;;5.20;4.32;;;;;;;;;;10368063;28;20037;-64
2022/12/18 23:18:12;;;;;;;7.05;4.32;;;;;;;;;;10367562;28;20145;-64
2022/12/18 23:23:13;;;;;;;8.57;5.00;;;;;;;;;;10362844;28;20059;-64
2022/12/18 23:28:13;;;;;;;6.07;4.43;;;;;;;;;;10367879;28;20125;-64
2022/12/18 23:33:14;;;;;;;7.90;3.97;;;;;;;;;;10367212;28;20056;-64
2022/12/18 23:38:15;;;;;;;7.63;4.05;;;;;;;;;;10355311;28;20038;-64
2022/12/18 23:43:15;;;;;;;9.02;4.53;;;;;;;;;;10353268;28;20030;-64
2022/12/18 23:48:16;;;;;;;6.88;4.57;;;;;;;;;;10366341;28;20265;-64
2022/12/18 23:53:16;;;;;;;6.70;4.40;;;;;;;;;;10366068;28;20046;-64
2022/12/18 23:58:20;;;;;;;5.97;3.97;;;;;;;;;;10366073;28;20045;-63
